Time;durP1;ratioP1;P1;durP2;ratioP2;P2;SDS_P1;SDS_P2;PMS_P1;PMS_P2;Temp;Humidity;BMP_temperature;BMP_pressure;BME280_temperature;BME280_humidity;BME280_pressure;Samples;Min_cycle;Max_cycle;Signal;HPM_P1;HPM_P2
2022/10/28 00:01:34;;;;;;;;;;;;;;;;;;5095084;28;20428;-76
2022/10/28 00:04:00;;;;;;;;;;;;;;;;;;5095395;28;19915;-76
2022/10/28 00:06:26;;;;;;;;;;;;;;;;;;5095171;28;19961;-76
2022/10/28 00:08:52;;;;;;;;;;;;;;;;;;5095251;28;19954;-76
2022/10/28 00:11:18;;;;;;;;;;;;;;;;;;5095584;28;20015;-76
2022/10/28 00:13:44;;;;;;;;;;;;;;;;;;5096302;28;19916;-77
2022/10/28 00:16:10;;;;;;;;;;;;;;;;;;5096333;28;20279;-76
2022/10/28 00:18:36;;;;;;;;;;;;;;;;;;5096866;28;19908;-76
2022/10/28 00:21:02;;;;;;;;;;;;;;;;;;5097470;28;20399;-76
2022/10/28 00:23:28;;;;;;;;;;;;;;;;;;5098677;28;19955;-76
2022/10/28 00:25:53;;;;;;;;;;;;;;;;;;5098121;28;19909;-76
2022/10/28 00:28:19;;;;;;;;;;;;;;;;;;5098164;28;20261;-76
2022/10/28 00:30:45;;;;;;;;;;;;;;;;;;5097237;28;19911;-76
2022/10/28 00:33:11;;;;;;;;;;;;;;;;;;5095975;28;19912;-77
2022/10/28 00:35:37;;;;;;;;;;;;;;;;;;5095151;28;19914;-76
2022/10/28 00:38:03;;;;;;;;;;;;;;;;;;5096673;28;19915;-78
2022/10/28 00:40:29;;;;;;;;;;;;;;;;;;5096237;28;19912;-75
2022/10/28 00:42:55;;;;;;;;;;;;;;;;;;5094515;28;19908;-75
2022/10/28 00:45:20;;;;;;;;;;;;;;;;;;5095699;28;19999;-77
2022/10/28 00:47:50;;;;;;;;;;;;;;;;;;5094520;28;19908;-76
2022/10/28 00:50:16;;;;;;;;;;;;;;;;;;5094251;28;19908;-78
2022/10/28 00:52:42;;;;;;;;;;;;;;;;;;5094281;28;19912;-76
2022/10/28 00:55:08;;;;;;;;;;;;;;;;;;5095486;28;19912;-77
2022/10/28 00:57:34;;;;;;;;;;;;;;;;;;5093775;28;19915;-77
2022/10/28 01:00:00;;;;;;;;;;;;;;;;;;5095254;28;19943;-78
2022/10/28 01:02:25;;;;;;;;;;;;;;;;;;5093903;28;20386;-76
2022/10/28 01:04:51;;;;;;;;;;;;;;;;;;5093804;28;19908;-76
2022/10/28 01:07:17;;;;;;;;;;;;;;;;;;5095139;28;20372;-78
2022/10/28 01:09:43;;;;;;;;;;;;;;;;;;5095584;28;19908;-77
2022/10/28 01:12:09;;;;;;;;;;;;;;;;;;5095549;28;19912;-78
2022/10/28 01:14:35;;;;;;;;;;;;;;;;;;5094737;28;20007;-78
2022/10/28 01:17:01;;;;;;;;;;;;;;;;;;5095083;28;19958;-77
2022/10/28 01:19:27;;;;;;;;;;;;;;;;;;5093630;28;19915;-76
2022/10/28 01:21:53;;;;;;;;;;;;;;;;;;5096021;28;20431;-76
2022/10/28 01:24:18;;;;;;;;;;;;;;;;;;5095176;28;19916;-76
2022/10/28 01:26:44;;;;;;;;;;;;;;;;;;5080821;28;19912;-76
2022/10/28 01:29:10;;;;;;;;;;;;;;;;;;5074420;28;19992;-76
2022/10/28 01:31:36;;;;;;;;;;;;;;;;;;5072729;28;19911;-76
2022/10/28 01:34:02;;;;;;;;;;;;;;;;;;5073270;28;20363;-78
2022/10/28 01:36:28;;;;;;;;;;;;;;;;;;5075192;28;20107;-77
2022/10/28 01:38:54;;;;;;;;;;;;;;;;;;5074093;28;20391;-76
2022/10/28 01:41:20;;;;;;;;;;;;;;;;;;5073745;28;19913;-76
2022/10/28 01:43:46;;;;;;;;;;;;;;;;;;5072837;28;20360;-76
2022/10/28 01:46:12;;;;;;;;;;;;;;;;;;5072776;28;19916;-76
2022/10/28 01:48:38;;;;;;;;;;;;;;;;;;5072525;28;19912;-78
2022/10/28 01:51:04;;;;;;;;;;;;;;;;;;5074230;28;20011;-76
2022/10/28 01:53:29;;;;;;;;;;;;;;;;;;5074043;28;19917;-76
2022/10/28 01:55:55;;;;;;;;;;;;;;;;;;5072868;28;20375;-76
2022/10/28 01:58:21;;;;;;;;;;;;;;;;;;5072744;28;19916;-74
2022/10/28 02:00:47;;;;;;;;;;;;;;;;;;5073961;28;20426;-76
2022/10/28 02:03:13;;;;;;;;;;;;;;;;;;5073778;28;19916;-76
2022/10/28 02:05:39;;;;;;;;;;;;;;;;;;5073687;28;19909;-77
2022/10/28 02:08:05;;;;;;;;;;;;;;;;;;5073800;28;19915;-76
2022/10/28 02:10:32;;;;;;;;;;;;;;;;;;5072483;28;19913;-76
2022/10/28 02:12:58;;;;;;;;;;;;;;;;;;5072180;28;19964;-76
2022/10/28 02:15:24;;;;;;;;;;;;;;;;;;5072617;28;20284;-77
2022/10/28 02:17:50;;;;;;;;;;;;;;;;;;5074217;28;19915;-76
2022/10/28 02:20:16;;;;;;;;;;;;;;;;;;5072785;28;20342;-75
2022/10/28 02:22:42;;;;;;;;;;;;;;;;;;5073994;28;19912;-78
2022/10/28 02:25:08;;;;;;;;;;;;;;;;;;5072635;28;19912;-77
2022/10/28 02:27:34;;;;;;;;;;;;;;;;;;5073548;28;20385;-76
2022/10/28 02:30:00;;;;;;;;;;;;;;;;;;5072419;28;19958;-75
2022/10/28 02:32:25;;;;;;;;;;;;;;;;;;5071711;28;19912;-75
2022/10/28 02:34:51;;;;;;;;;;;;;;;;;;5072010;28;20410;-78
2022/10/28 02:37:17;;;;;;;;;;;;;;;;;;5072249;28;20007;-76
2022/10/28 02:39:43;;;;;;;;;;;;;;;;;;5072012;28;20372;-77
2022/10/28 02:42:09;;;;;;;;;;;;;;;;;;5072275;28;19909;-77
2022/10/28 02:44:35;;;;;;;;;;;;;;;;;;5073664;28;19954;-80
2022/10/28 02:47:01;;;;;;;;;;;;;;;;;;5072101;28;20415;-76
2022/10/28 02:49:27;;;;;;;;;;;;;;;;;;5072064;28;19908;-76
2022/10/28 02:51:52;;;;;;;;;;;;;;;;;;5071907;28;20341;-76
2022/10/28 02:54:18;;;;;;;;;;;;;;;;;;5072867;28;19916;-76
2022/10/28 02:56:44;;;;;;;;;;;;;;;;;;5071691;28;19943;-76
2022/10/28 02:59:10;;;;;;;;;;;;;;;;;;5072055;28;19915;-77
2022/10/28 03:01:36;;;;;;;;;;;;;;;;;;5073203;28;19909;-76
2022/10/28 03:04:03;;;;;;;;;;;;;;;;;;5071962;28;20030;-76
2022/10/28 03:06:29;;;;;;;;;;;;;;;;;;5073196;28;19976;-78
2022/10/28 03:08:55;;;;;;;;;;;;;;;;;;5072238;28;19909;-75
2022/10/28 03:11:20;;;;;;;;;;;;;;;;;;5072109;28;19987;-77
2022/10/28 03:13:46;;;;;;;;;;;;;;;;;;5071886;28;19916;-76
2022/10/28 03:16:12;;;;;;;;;;;;;;;;;;5073267;28;19912;-80
2022/10/28 03:18:38;;;;;;;;;;;;;;;;;;5072617;28;19908;-77
2022/10/28 03:21:04;;;;;;;;;;;;;;;;;;5075553;28;19909;-76
2022/10/28 03:23:30;;;;;;;;;;;;;;;;;;5075058;28;20003;-78
2022/10/28 03:25:56;;;;;;;;;;;;;;;;;;5075256;28;19909;-76
2022/10/28 03:28:22;;;;;;;;;;;;;;;;;;5072216;28;19909;-77
2022/10/28 03:30:47;;;;;;;;;;;;;;;;;;5072506;28;20368;-76
2022/10/28 03:33:14;;;;;;;;;;;;;;;;;;5075738;28;19912;-76
2022/10/28 03:35:40;;;;;;;;;;;;;;;;;;5076550;28;19909;-78
2022/10/28 03:38:06;;;;;;;;;;;;;;;;;;5077442;28;19908;-78
2022/10/28 03:40:33;;;;;;;;;;;;;;;;;;5076751;28;19915;-75
2022/10/28 03:42:58;;;;;;;;;;;;;;;;;;5072867;28;19999;-76
2022/10/28 03:45:24;;;;;;;;;;;;;;;;;;5071282;28;19944;-76
2022/10/28 03:47:50;;;;;;;;;;;;;;;;;;5071645;28;20364;-76
2022/10/28 03:50:16;;;;;;;;;;;;;;;;;;5071629;28;19909;-78
2022/10/28 03:52:43;;;;;;;;;;;;;;;;;;5071647;28;20349;-76
2022/10/28 03:55:09;;;;;;;;;;;;;;;;;;5072606;28;20376;-76
2022/10/28 03:57:35;;;;;;;;;;;;;;;;;;5071670;28;19914;-76
2022/10/28 04:00:00;;;;;;;;;;;;;;;;;;5071395;28;19912;-77
2022/10/28 04:02:26;;;;;;;;;;;;;;;;;;5072511;28;19913;-77
2022/10/28 04:04:52;;;;;;;;;;;;;;;;;;5074884;28;19908;-74
2022/10/28 04:07:18;;;;;;;;;;;;;;;;;;5074553;28;19913;-78
2022/10/28 04:09:44;;;;;;;;;;;;;;;;;;5075061;28;19909;-76
2022/10/28 04:12:10;;;;;;;;;;;;;;;;;;5074445;28;19913;-76
2022/10/28 04:14:36;;;;;;;;;;;;;;;;;;5074147;28;19924;-75
2022/10/28 04:17:02;;;;;;;;;;;;;;;;;;5075720;28;20006;-77
2022/10/28 04:19:27;;;;;;;;;;;;;;;;;;5074422;28;19908;-76
2022/10/28 04:21:53;;;;;;;;;;;;;;;;;;5074682;28;20407;-75
2022/10/28 04:24:19;;;;;;;;;;;;;;;;;;5075649;28;19908;-75
2022/10/28 04:26:45;;;;;;;;;;;;;;;;;;5075411;28;19904;-77
2022/10/28 04:29:11;;;;;;;;;;;;;;;;;;5074111;28;20395;-77
2022/10/28 04:31:37;;;;;;;;;;;;;;;;;;5075127;28;19945;-77
2022/10/28 04:34:03;;;;;;;;;;;;;;;;;;5074300;28;20372;-77
2022/10/28 04:36:29;;;;;;;;;;;;;;;;;;5075495;28;19912;-76
2022/10/28 04:38:55;;;;;;;;;;;;;;;;;;5074255;28;20515;-76
2022/10/28 04:41:20;;;;;;;;;;;;;;;;;;5075292;28;19908;-76
2022/10/28 04:43:46;;;;;;;;;;;;;;;;;;5074157;28;19915;-76
2022/10/28 04:46:12;;;;;;;;;;;;;;;;;;5074030;28;19954;-75
2022/10/28 04:48:38;;;;;;;;;;;;;;;;;;5074053;28;20311;-76
2022/10/28 04:51:04;;;;;;;;;;;;;;;;;;5073923;28;19909;-76
2022/10/28 04:53:30;;;;;;;;;;;;;;;;;;5075107;28;19913;-76
2022/10/28 04:55:56;;;;;;;;;;;;;;;;;;5073928;28;19950;-78
2022/10/28 04:58:22;;;;;;;;;;;;;;;;;;5074091;28;19909;-77
2022/10/28 05:00:48;;;;;;;;;;;;;;;;;;5073899;28;20036;-77
2022/10/28 05:03:14;;;;;;;;;;;;;;;;;;5073480;28;20445;-76
2022/10/28 05:05:40;;;;;;;;;;;;;;;;;;5074978;28;19942;-76
2022/10/28 05:08:06;;;;;;;;;;;;;;;;;;5075022;28;19916;-74
2022/10/28 05:10:31;;;;;;;;;;;;;;;;;;5075399;28;19909;-76
2022/10/28 05:12:57;;;;;;;;;;;;;;;;;;5075267;28;19970;-77
2022/10/28 05:15:25;;;;;;;;;;;;;;;;;;5073901;28;19955;-76
2022/10/28 05:17:51;;;;;;;;;;;;;;;;;;5073877;28;19909;-76
2022/10/28 05:20:17;;;;;;;;;;;;;;;;;;5074146;28;20002;-77
2022/10/28 05:22:43;;;;;;;;;;;;;;;;;;5075512;28;19912;-77
2022/10/28 05:25:08;;;;;;;;;;;;;;;;;;5074799;28;19913;-76
2022/10/28 05:27:34;;;;;;;;;;;;;;;;;;5073708;28;19908;-77
2022/10/28 05:30:00;;;;;;;;;;;;;;;;;;5074210;28;19908;-78
2022/10/28 05:32:26;;;;;;;;;;;;;;;;;;5074117;28;19912;-77
2022/10/28 05:34:52;;;;;;;;;;;;;;;;;;5075831;28;20352;-78
2022/10/28 05:37:18;;;;;;;;;;;;;;;;;;5074352;28;20065;-79
2022/10/28 05:39:44;;;;;;;;;;;;;;;;;;5074239;28;19961;-76
2022/10/28 05:42:10;;;;;;;;;;;;;;;;;;5076271;28;19912;-76
2022/10/28 05:44:36;;;;;;;;;;;;;;;;;;5075943;28;19951;-76
2022/10/28 05:47:02;;;;;;;;;;;;;;;;;;5074182;28;20369;-76
2022/10/28 05:49:27;;;;;;;;;;;;;;;;;;5076670;28;20368;-76
2022/10/28 05:51:53;;;;;;;;;;;;;;;;;;5095186;28;19912;-78
2022/10/28 05:54:19;;;;;;;;;;;;;;;;;;5095764;28;19912;-76
2022/10/28 05:56:45;;;;;;;;;;;;;;;;;;5095731;28;20303;-78
2022/10/28 05:59:11;;;;;;;;;;;;;;;;;;5094991;28;19914;-80
2022/10/28 06:01:37;;;;;;;;;;;;;;;;;;5095165;28;19915;-78
2022/10/28 06:04:03;;;;;;;;;;;;;;;;;;5094730;28;19962;-76
2022/10/28 06:06:29;;;;;;;;;;;;;;;;;;5093007;28;19912;-77
2022/10/28 06:08:55;;;;;;;;;;;;;;;;;;5093203;28;20292;-76
2022/10/28 06:11:21;;;;;;;;;;;;;;;;;;5095037;28;19916;-77
2022/10/28 06:13:47;;;;;;;;;;;;;;;;;;5089774;28;20007;-76
2022/10/28 06:16:13;;;;;;;;;;;;;;;;;;5073760;28;19913;-77
2022/10/28 06:18:39;;;;;;;;;;;;;;;;;;5074362;28;19913;-77
2022/10/28 06:21:04;;;;;;;;;;;;;;;;;;5074571;28;20372;-76
2022/10/28 06:23:30;;;;;;;;;;;;;;;;;;5073247;28;19953;-77
2022/10/28 06:25:56;;;;;;;;;;;;;;;;;;5072898;28;19912;-77
2022/10/28 06:28:22;;;;;;;;;;;;;;;;;;5073580;28;19931;-76
2022/10/28 06:30:48;;;;;;;;;;;;;;;;;;5073406;28;19913;-77
2022/10/28 06:33:14;;;;;;;;;;;;;;;;;;5072563;28;19912;-77
2022/10/28 06:35:40;;;;;;;;;;;;;;;;;;5073580;28;20431;-77
2022/10/28 06:38:06;;;;;;;;;;;;;;;;;;5073537;28;19904;-76
2022/10/28 06:40:32;;;;;;;;;;;;;;;;;;5071931;28;19912;-76
2022/10/28 06:42:58;;;;;;;;;;;;;;;;;;5073270;28;19905;-76
2022/10/28 06:45:24;;;;;;;;;;;;;;;;;;5072876;28;20284;-76
2022/10/28 06:47:50;;;;;;;;;;;;;;;;;;5073519;28;19926;-78
2022/10/28 06:50:15;;;;;;;;;;;;;;;;;;5076053;28;20269;-77
2022/10/28 06:52:41;;;;;;;;;;;;;;;;;;5079956;28;19913;-79
2022/10/28 06:55:07;;;;;;;;;;;;;;;;;;5073134;28;19916;-77
2022/10/28 06:57:33;;;;;;;;;;;;;;;;;;5073880;28;19974;-77
2022/10/28 06:59:59;;;;;;;;;;;;;;;;;;5072360;28;19919;-77
2022/10/28 07:02:25;;;;;;;;;;;;;;;;;;5071815;28;20007;-76
2022/10/28 07:04:51;;;;;;;;;;;;;;;;;;5072068;28;19908;-76
2022/10/28 07:07:18;;;;;;;;;;;;;;;;;;5073050;28;19915;-76
2022/10/28 07:09:44;;;;;;;;;;;;;;;;;;5073172;28;19953;-77
2022/10/28 07:12:10;;;;;;;;;;;;;;;;;;5071950;28;19912;-76
2022/10/28 07:14:36;;;;;;;;;;;;;;;;;;5071863;28;19920;-77
2022/10/28 07:17:02;;;;;;;;;;;;;;;;;;5072832;28;19916;-77
2022/10/28 07:19:27;;;;;;;;;;;;;;;;;;5073253;28;20013;-78
2022/10/28 07:21:53;;;;;;;;;;;;;;;;;;5071990;28;19915;-77
2022/10/28 07:24:19;;;;;;;;;;;;;;;;;;5071948;28;19919;-76
2022/10/28 07:26:45;;;;;;;;;;;;;;;;;;5070696;28;19908;-77
2022/10/28 07:29:11;;;;;;;;;;;;;;;;;;5072847;28;19988;-77
2022/10/28 07:31:37;;;;;;;;;;;;;;;;;;5073341;28;19933;-76
2022/10/28 07:34:03;;;;;;;;;;;;;;;;;;5072772;28;19935;-76
2022/10/28 07:36:29;;;;;;;;;;;;;;;;;;5073989;28;19961;-77
2022/10/28 07:38:55;;;;;;;;;;;;;;;;;;5074577;28;19915;-77
2022/10/28 07:41:20;;;;;;;;;;;;;;;;;;5077122;28;19948;-76
2022/10/28 07:43:46;;;;;;;;;;;;;;;;;;5075375;28;19909;-75
2022/10/28 07:46:12;;;;;;;;;;;;;;;;;;5078382;28;19982;-77
2022/10/28 07:48:38;;;;;;;;;;;;;;;;;;5078399;28;20280;-77
2022/10/28 07:51:04;;;;;;;;;;;;;;;;;;5077368;28;19908;-78
2022/10/28 07:53:30;;;;;;;;;;;;;;;;;;5078027;28;19912;-77
2022/10/28 07:55:56;;;;;;;;;;;;;;;;;;5076271;28;19999;-79
2022/10/28 07:58:22;;;;;;;;;;;;;;;;;;5076971;28;19908;-77
2022/10/28 08:00:47;;;;;;;;;;;;;;;;;;5076305;28;19908;-76
2022/10/28 08:03:13;;;;;;;;;;;;;;;;;;5076978;28;20412;-77
2022/10/28 08:05:39;;;;;;;;;;;;;;;;;;5076191;28;19910;-77
2022/10/28 08:08:05;;;;;;;;;;;;;;;;;;5077344;28;20365;-78
2022/10/28 08:10:31;;;;;;;;;;;;;;;;;;5077944;28;19915;-78
2022/10/28 08:12:57;;;;;;;;;;;;;;;;;;5076632;28;20391;-77
2022/10/28 08:15:23;;;;;;;;;;;;;;;;;;5078367;28;19923;-77
2022/10/28 08:17:49;;;;;;;;;;;;;;;;;;5077683;28;19912;-76
2022/10/28 08:20:15;;;;;;;;;;;;;;;;;;5078023;28;19908;-77
2022/10/28 08:22:41;;;;;;;;;;;;;;;;;;5076439;28;20326;-77
2022/10/28 08:25:07;;;;;;;;;;;;;;;;;;5077002;28;19908;-77
2022/10/28 08:27:33;;;;;;;;;;;;;;;;;;5077536;28;19908;-79
2022/10/28 08:29:58;;;;;;;;;;;;;;;;;;5078564;28;19960;-81
2022/10/28 08:32:24;;;;;;;;;;;;;;;;;;5076592;28;19917;-78
2022/10/28 08:34:50;;;;;;;;;;;;;;;;;;5077851;28;19909;-77
2022/10/28 08:37:16;;;;;;;;;;;;;;;;;;5075562;28;19908;-75
2022/10/28 08:39:42;;;;;;;;;;;;;;;;;;5076468;28;19908;-78
2022/10/28 08:42:08;;;;;;;;;;;;;;;;;;5076234;28;19996;-75
2022/10/28 08:44:34;;;;;;;;;;;;;;;;;;5073993;28;19909;-76
2022/10/28 08:47:00;;;;;;;;;;;;;;;;;;5075298;28;19927;-76
2022/10/28 08:49:26;;;;;;;;;;;;;;;;;;5073328;28;19916;-76
2022/10/28 08:51:51;;;;;;;;;;;;;;;;;;5073983;28;20011;-76
2022/10/28 08:54:18;;;;;;;;;;;;;;;;;;5074925;28;19934;-76
2022/10/28 08:56:45;;;;;;;;;;;;;;;;;;5075234;28;19908;-76
2022/10/28 08:59:10;;;;;;;;;;;;;;;;;;5075367;28;19931;-77
2022/10/28 09:01:36;;;;;;;;;;;;;;;;;;5075541;28;20455;-76
2022/10/28 09:04:02;;;;;;;;;;;;;;;;;;5075222;28;19908;-75
2022/10/28 09:06:28;;;;;;;;;;;;;;;;;;5074658;28;20495;-76
2022/10/28 09:08:56;;;;;;;;;;;;;;;;;;5073389;28;19909;-76
2022/10/28 09:11:22;;;;;;;;;;;;;;;;;;5074926;28;20296;-76
2022/10/28 09:13:48;;;;;;;;;;;;;;;;;;5073023;28;19916;-76
2022/10/28 09:16:14;;;;;;;;;;;;;;;;;;5074100;28;19909;-77
2022/10/28 09:18:41;;;;;;;;;;;;;;;;;;5075321;28;19908;-84
2022/10/28 09:21:06;;;;;;;;;;;;;;;;;;5074321;28;20027;-77
2022/10/28 09:23:32;;;;;;;;;;;;;;;;;;5073039;28;20374;-76
2022/10/28 09:25:58;;;;;;;;;;;;;;;;;;5073280;28;19914;-76
2022/10/28 09:28:24;;;;;;;;;;;;;;;;;;5074952;28;20322;-78
2022/10/28 09:30:50;;;;;;;;;;;;;;;;;;5074435;28;19915;-76
2022/10/28 09:33:16;;;;;;;;;;;;;;;;;;5071937;28;19939;-76
2022/10/28 09:35:42;;;;;;;;;;;;;;;;;;5072291;28;20284;-76
2022/10/28 09:38:08;;;;;;;;;;;;;;;;;;5072266;28;19947;-76
2022/10/28 09:40:33;;;;;;;;;;;;;;;;;;5071968;28;19992;-76
2022/10/28 09:42:59;;;;;;;;;;;;;;;;;;5072718;28;19912;-77
2022/10/28 09:45:25;;;;;;;;;;;;;;;;;;5072443;28;19908;-77
2022/10/28 09:47:51;;;;;;;;;;;;;;;;;;5072352;28;19905;-76
2022/10/28 09:50:17;;;;;;;;;;;;;;;;;;5073789;28;19915;-76
2022/10/28 09:52:43;;;;;;;;;;;;;;;;;;5073794;28;19912;-76
2022/10/28 09:55:09;;;;;;;;;;;;;;;;;;5073459;28;19960;-76
2022/10/28 09:57:35;;;;;;;;;;;;;;;;;;5073141;28;19909;-76
2022/10/28 10:00:01;;;;;;;;;;;;;;;;;;5073320;28;19912;-77
2022/10/28 10:02:26;;;;;;;;;;;;;;;;;;5071521;28;19909;-75
2022/10/28 10:04:52;;;;;;;;;;;;;;;;;;5073426;28;19909;-78
2022/10/28 10:07:18;;;;;;;;;;;;;;;;;;5073345;28;20573;-76
2022/10/28 10:09:44;;;;;;;;;;;;;;;;;;5072071;28;19974;-76
2022/10/28 10:12:10;;;;;;;;;;;;;;;;;;5073542;28;19912;-76
2022/10/28 10:14:36;;;;;;;;;;;;;;;;;;5073013;28;19917;-76
2022/10/28 10:17:02;;;;;;;;;;;;;;;;;;5071719;28;19908;-76
2022/10/28 10:19:28;;;;;;;;;;;;;;;;;;5072744;28;20004;-76
2022/10/28 10:21:54;;;;;;;;;;;;;;;;;;5071726;28;19914;-75
2022/10/28 10:24:20;;;;;;;;;;;;;;;;;;5072321;28;20005;-75
2022/10/28 10:26:46;;;;;;;;;;;;;;;;;;5072955;28;19908;-76
2022/10/28 10:29:11;;;;;;;;;;;;;;;;;;5091226;28;19912;-76
2022/10/28 10:31:37;;;;;;;;;;;;;;;;;;5092949;28;19959;-76
2022/10/28 10:34:03;;;;;;;;;;;;;;;;;;5093470;28;19919;-78
2022/10/28 10:36:30;;;;;;;;;;;;;;;;;;5093024;28;20011;-76
2022/10/28 10:38:56;;;;;;;;;;;;;;;;;;5091453;28;19919;-76
2022/10/28 10:41:22;;;;;;;;;;;;;;;;;;5091651;28;20284;-76
2022/10/28 10:43:47;;;;;;;;;;;;;;;;;;5091467;28;19944;-76
2022/10/28 10:46:16;;;;;;;;;;;;;;;;;;5093377;28;20325;-81
2022/10/28 10:48:42;;;;;;;;;;;;;;;;;;5092932;28;19915;-75
2022/10/28 10:51:08;;;;;;;;;;;;;;;;;;5091438;28;19908;-76
2022/10/28 10:53:34;;;;;;;;;;;;;;;;;;5092165;28;19912;-76
2022/10/28 10:56:00;;;;;;;;;;;;;;;;;;5092583;28;19908;-77
2022/10/28 10:58:26;;;;;;;;;;;;;;;;;;5092863;28;19909;-76
2022/10/28 11:00:52;;;;;;;;;;;;;;;;;;5092843;28;19908;-77
2022/10/28 11:03:17;;;;;;;;;;;;;;;;;;5092614;28;19912;-77
2022/10/28 11:05:43;;;;;;;;;;;;;;;;;;5091612;28;19911;-77
2022/10/28 11:08:09;;;;;;;;;;;;;;;;;;5093004;28;19935;-77
2022/10/28 11:10:35;;;;;;;;;;;;;;;;;;5092928;28;19908;-76
2022/10/28 11:13:01;;;;;;;;;;;;;;;;;;5092716;28;19912;-76
2022/10/28 11:15:27;;;;;;;;;;;;;;;;;;5096732;28;20372;-77
2022/10/28 11:17:53;;;;;;;;;;;;;;;;;;5096834;28;19999;-76
2022/10/28 11:20:19;;;;;;;;;;;;;;;;;;5095544;28;20026;-76
2022/10/28 11:22:45;;;;;;;;;;;;;;;;;;5096778;28;19965;-76
2022/10/28 11:25:11;;;;;;;;;;;;;;;;;;5095623;28;19909;-77
2022/10/28 11:27:37;;;;;;;;;;;;;;;;;;5095626;28;19905;-76
2022/10/28 11:30:03;;;;;;;;;;;;;;;;;;5096521;28;19977;-77
2022/10/28 11:32:28;;;;;;;;;;;;;;;;;;5096787;28;20121;-76
2022/10/28 11:34:54;;;;;;;;;;;;;;;;;;5096102;28;19912;-77
2022/10/28 11:37:20;;;;;;;;;;;;;;;;;;5094830;28;19908;-75
2022/10/28 11:39:46;;;;;;;;;;;;;;;;;;5096352;28;19908;-75
2022/10/28 11:42:12;;;;;;;;;;;;;;;;;;5095672;28;19949;-75
2022/10/28 11:44:38;;;;;;;;;;;;;;;;;;5095841;28;20372;-76
2022/10/28 11:47:04;;;;;;;;;;;;;;;;;;5095906;28;19908;-76
2022/10/28 11:49:30;;;;;;;;;;;;;;;;;;5094287;28;20284;-76
2022/10/28 11:51:55;;;;;;;;;;;;;;;;;;5094814;28;19908;-76
2022/10/28 11:54:21;;;;;;;;;;;;;;;;;;5096040;28;20287;-74
2022/10/28 11:56:47;;;;;;;;;;;;;;;;;;5095967;28;19908;-76
2022/10/28 11:59:13;;;;;;;;;;;;;;;;;;5096060;28;20280;-76
2022/10/28 12:01:39;;;;;;;;;;;;;;;;;;5095946;28;19937;-76
2022/10/28 12:04:05;;;;;;;;;;;;;;;;;;5096344;28;20329;-76
2022/10/28 12:06:31;;;;;;;;;;;;;;;;;;5094619;28;19908;-76
2022/10/28 12:08:57;;;;;;;;;;;;;;;;;;5095718;28;19951;-76
2022/10/28 12:11:22;;;;;;;;;;;;;;;;;;5094899;28;19912;-76
2022/10/28 12:13:48;;;;;;;;;;;;;;;;;;5095771;28;19916;-76
2022/10/28 12:16:14;;;;;;;;;;;;;;;;;;5097210;28;19908;-77
2022/10/28 12:18:40;;;;;;;;;;;;;;;;;;5095322;28;19908;-75
2022/10/28 12:21:06;;;;;;;;;;;;;;;;;;5095707;28;19919;-75
2022/10/28 12:23:32;;;;;;;;;;;;;;;;;;5094508;28;20020;-76
2022/10/28 12:25:58;;;;;;;;;;;;;;;;;;5094937;28;19931;-75
2022/10/28 12:28:24;;;;;;;;;;;;;;;;;;5095398;28;19962;-75
2022/10/28 12:30:50;;;;;;;;;;;;;;;;;;5094184;28;19912;-75
2022/10/28 12:33:15;;;;;;;;;;;;;;;;;;5093851;28;19912;-76
2022/10/28 12:35:41;;;;;;;;;;;;;;;;;;5093988;28;19916;-76
2022/10/28 12:38:07;;;;;;;;;;;;;;;;;;5095604;28;19909;-76
2022/10/28 12:40:33;;;;;;;;;;;;;;;;;;5095551;28;19911;-76
2022/10/28 12:42:59;;;;;;;;;;;;;;;;;;5095612;28;19937;-76
2022/10/28 12:45:25;;;;;;;;;;;;;;;;;;5095040;28;19931;-76
2022/10/28 12:47:51;;;;;;;;;;;;;;;;;;5095109;28;19947;-76
2022/10/28 12:50:17;;;;;;;;;;;;;;;;;;5094987;28;19912;-76
2022/10/28 12:52:43;;;;;;;;;;;;;;;;;;5093613;28;19912;-76
2022/10/28 12:55:09;;;;;;;;;;;;;;;;;;5094280;28;19958;-77
2022/10/28 12:57:35;;;;;;;;;;;;;;;;;;5095545;28;20300;-76
2022/10/28 13:00:01;;;;;;;;;;;;;;;;;;5094842;28;19908;-75
2022/10/28 13:02:26;;;;;;;;;;;;;;;;;;5094718;28;20011;-76
2022/10/28 13:04:52;;;;;;;;;;;;;;;;;;5094529;28;19951;-76
2022/10/28 13:07:18;;;;;;;;;;;;;;;;;;5094936;28;19908;-77
2022/10/28 13:09:44;;;;;;;;;;;;;;;;;;5095250;28;19912;-77
2022/10/28 13:12:10;;;;;;;;;;;;;;;;;;5095022;28;20303;-75
2022/10/28 13:14:36;;;;;;;;;;;;;;;;;;5094631;28;20010;-76
2022/10/28 13:17:02;;;;;;;;;;;;;;;;;;5095008;28;19914;-76
2022/10/28 13:19:28;;;;;;;;;;;;;;;;;;5093647;28;19953;-76
2022/10/28 13:21:54;;;;;;;;;;;;;;;;;;5093545;28;20005;-77
2022/10/28 13:24:19;;;;;;;;;;;;;;;;;;5093344;28;19956;-75
2022/10/28 13:26:45;;;;;;;;;;;;;;;;;;5094309;28;19923;-76
2022/10/28 13:29:11;;;;;;;;;;;;;;;;;;5093384;28;19943;-76
2022/10/28 13:31:37;;;;;;;;;;;;;;;;;;5093792;28;20401;-75
2022/10/28 13:34:03;;;;;;;;;;;;;;;;;;5093073;28;19926;-76
2022/10/28 13:36:29;;;;;;;;;;;;;;;;;;5093392;28;19912;-75
2022/10/28 13:38:55;;;;;;;;;;;;;;;;;;5092873;28;19908;-74
2022/10/28 13:41:21;;;;;;;;;;;;;;;;;;5091669;28;19916;-75
2022/10/28 13:43:47;;;;;;;;;;;;;;;;;;5093477;28;19908;-74
2022/10/28 13:46:13;;;;;;;;;;;;;;;;;;5093787;28;20288;-75
2022/10/28 13:48:39;;;;;;;;;;;;;;;;;;5093318;28;19908;-75
2022/10/28 13:51:04;;;;;;;;;;;;;;;;;;5093703;28;19908;-75
2022/10/28 13:53:30;;;;;;;;;;;;;;;;;;5092228;28;20010;-76
2022/10/28 13:55:56;;;;;;;;;;;;;;;;;;5093511;28;19916;-76
2022/10/28 13:58:22;;;;;;;;;;;;;;;;;;5092222;28;19909;-76
2022/10/28 14:00:48;;;;;;;;;;;;;;;;;;5093558;28;19908;-76
2022/10/28 14:03:14;;;;;;;;;;;;;;;;;;5094873;28;20291;-76
2022/10/28 14:05:40;;;;;;;;;;;;;;;;;;5088843;28;20280;-77
2022/10/28 14:08:06;;;;;;;;;;;;;;;;;;5072818;28;19916;-75
2022/10/28 14:10:32;;;;;;;;;;;;;;;;;;5073385;28;20427;-76
2022/10/28 14:12:57;;;;;;;;;;;;;;;;;;5073266;28;19912;-75
2022/10/28 14:15:23;;;;;;;;;;;;;;;;;;5079565;22;20305;-80
2022/10/28 14:17:49;;;;;;;;;;;;;;;;;;5038761;28;19909;-79
2022/10/28 14:20:15;;;;;;;;;;;;;;;;;;5039228;28;19909;-79
2022/10/28 14:22:41;;;;;;;;;;;;;;;;;;5056341;28;19947;-79
2022/10/28 14:25:07;;;;;;;;;;;;;;;;;;5037899;28;19915;-79
2022/10/28 14:27:33;;;;;;;;;;;;;;;;;;5037506;28;19909;-79
2022/10/28 14:29:59;;;;;;;;;;;;;;;;;;5038177;28;19963;-79
2022/10/28 14:32:25;;;;;;;;;;;;;;;;;;5038651;28;19916;-78
2022/10/28 14:34:51;;;;;;;;;;;;;;;;;;5039809;28;19909;-78
2022/10/28 14:37:17;;;;;;;;;;;;;;;;;;5039301;28;19912;-78
2022/10/28 14:39:42;;;;;;;;;;;;;;;;;;5035381;28;19908;-78
2022/10/28 14:42:08;;;;;;;;;;;;;;;;;;5035283;28;19909;-78
2022/10/28 14:44:34;;;;;;;;;;;;;;;;;;5053057;28;19940;-77
2022/10/28 14:47:00;;;;;;;;;;;;;;;;;;5052938;28;20313;-77
2022/10/28 14:49:26;;;;;;;;;;;;;;;;;;5034931;28;20003;-77
2022/10/28 14:51:52;;;;;;;;;;;;;;;;;;5052835;28;19948;-77
2022/10/28 14:54:18;;;;;;;;;;;;;;;;;;5035075;28;20390;-77
2022/10/28 14:56:44;;;;;;;;;;;;;;;;;;5052989;28;19932;-77
2022/10/28 14:59:10;;;;;;;;;;;;;;;;;;5051507;28;19916;-78
2022/10/28 15:01:35;;;;;;;;;;;;;;;;;;5052029;28;19912;-76
2022/10/28 15:04:01;;;;;;;;;;;;;;;;;;5053905;28;19909;-77
2022/10/28 15:06:27;;;;;;;;;;;;;;;;;;5052203;28;19909;-77
2022/10/28 15:08:53;;;;;;;;;;;;;;;;;;5034908;28;19909;-78
2022/10/28 15:11:19;;;;;;;;;;;;;;;;;;5033988;28;19913;-76
2022/10/28 15:13:45;;;;;;;;;;;;;;;;;;5034067;28;19960;-76
2022/10/28 15:16:11;;;;;;;;;;;;;;;;;;5051977;28;19912;-78
2022/10/28 15:18:37;;;;;;;;;;;;;;;;;;5034242;28;19913;-77
2022/10/28 15:21:02;;;;;;;;;;;;;;;;;;5034231;28;19909;-77
2022/10/28 15:23:28;;;;;;;;;;;;;;;;;;5052151;28;19916;-77
2022/10/28 15:25:54;;;;;;;;;;;;;;;;;;5034178;28;19916;-77
2022/10/28 15:28:20;;;;;;;;;;;;;;;;;;5051936;28;19978;-77
2022/10/28 15:30:46;;;;;;;;;;;;;;;;;;5034469;28;19920;-78
2022/10/28 15:33:12;;;;;;;;;;;;;;;;;;5058919;28;19912;-79
2022/10/28 15:35:38;;;;;;;;;;;;;;;;;;5060336;28;19909;-80
2022/10/28 15:38:04;;;;;;;;;;;;;;;;;;5053503;28;19917;-79
2022/10/28 15:40:33;;;;;;;;;;;;;;;;;;5053960;28;19913;-87
2022/10/28 15:42:59;;;;;;;;;;;;;;;;;;5038157;28;19909;-78
2022/10/28 15:45:24;;;;;;;;;;;;;;;;;;5035762;28;19909;-80
2022/10/28 15:47:50;;;;;;;;;;;;;;;;;;5037076;28;19999;-79
2022/10/28 15:50:16;;;;;;;;;;;;;;;;;;5059827;28;20510;-78
2022/10/28 15:52:42;;;;;;;;;;;;;;;;;;5055163;28;20014;-78
2022/10/28 15:55:08;;;;;;;;;;;;;;;;;;5072111;28;19915;-76
2022/10/28 15:57:34;;;;;;;;;;;;;;;;;;5054302;28;19958;-77
2022/10/28 16:00:00;;;;;;;;;;;;;;;;;;5056398;28;19912;-77
2022/10/28 16:02:26;;;;;;;;;;;;;;;;;;5076747;28;19916;-78
2022/10/28 16:04:51;;;;;;;;;;;;;;;;;;5076508;28;19942;-78
2022/10/28 16:07:17;;;;;;;;;;;;;;;;;;5076086;28;19908;-77
2022/10/28 16:09:43;;;;;;;;;;;;;;;;;;5056352;28;20377;-75
2022/10/28 16:12:09;;;;;;;;;;;;;;;;;;5075953;28;19904;-77
2022/10/28 16:14:35;;;;;;;;;;;;;;;;;;5075600;28;19923;-78
2022/10/28 16:17:01;;;;;;;;;;;;;;;;;;5057193;28;19931;-78
2022/10/28 16:19:27;;;;;;;;;;;;;;;;;;5058091;28;20368;-78
2022/10/28 16:21:53;;;;;;;;;;;;;;;;;;5077162;28;19912;-77
2022/10/28 16:24:19;;;;;;;;;;;;;;;;;;5058457;28;20364;-77
2022/10/28 16:26:44;;;;;;;;;;;;;;;;;;5057668;28;19952;-78
2022/10/28 16:29:10;;;;;;;;;;;;;;;;;;5058745;28;20364;-77
2022/10/28 16:31:36;;;;;;;;;;;;;;;;;;5057814;28;19912;-78
2022/10/28 16:34:02;;;;;;;;;;;;;;;;;;5057872;28;20391;-78
2022/10/28 16:36:29;;;;;;;;;;;;;;;;;;5075937;28;20009;-77